الصفحة الرئيسية
METAR-TAF:

METAR-TAF

مطار :

Bluefields, نيكاراغوا

دائرة عرض: 12-00N, خط طول: 083-46W, ارتفاع: 5 متر

مراقبة الطقس الحالي

تاريخ ووقت الإصدار 53 دقيقة قبل الساعة 15:00UTC
ريح 4 عقدة من الشرق
درجة الحرارة 29°درجة مئوية
الرطوبة 70%
ضغط 1014 hPa
الرؤية 10 كم أو أكثر
غيوم متفرقة على ارتفاع 1800 قدم

METAR: MNBL 241500Z 10004KT 9999 SCT018 29/23 Q1014

زمن: 09:53 (15:53 UTC)

توقعات

تاريخ ووقت الإصدار 19ساعات و 43 دقيقة قبل الساعة 20:10UTC
التوقعات صالحة من24 الساعة 00 UTC إلى 24 الساعة 24 UTC
ريح 10 عقدة من الشرق
الرؤية 10 كم أو أكثر
غيوم متفرقة على ارتفاع 1800 قدم
أصبح
من 24 الساعة 13 UTC إلى 24 الساعة 17 UTC
ريح 8 عقدة من الشرق/الشمال الشرقي
غيوم متفرقة على ارتفاع 2000 قدم

TAF: MNBL 232010Z 2400/2424 10010KT 9999 SCT018 BECMG 2413/2417 06008KT SCT020

أرصاد الطقس والتوقعات من أكثر من 4000 مطار (تقارير الطقس للمطار METAR والتنبؤ بالطقس بالمطارTAF).

المحطات المتاحة هي النقط الصفراء والحمراء على الخريطة.

حرك المؤشر فوق النقطة لمعرفة اسم المحطة.

ثم انقر لمعرفة أرصاد وتوقعات الطقس.

لتغيير الخارطة: اضغط على الأزرار الخضراء مع رمز الصليب الأسود للتكبير. على الزر الأخضر مع شرطة للتصغير، أو على الأسهم الخضراء للخرائط المجاورة.


METAR-TAF: